Time;durP1;ratioP1;P1;durP2;ratioP2;P2;SDS_P1;SDS_P2;PMS_P1;PMS_P2;Temp;Humidity;BMP_temperature;BMP_pressure;BME280_temperature;BME280_humidity;BME280_pressure;Samples;Min_cycle;Max_cycle;Signal;HPM_P1;HPM_P2
2023/10/18 00:01:21;;;;;;;22.77;14.93;;;5.30;99.90;;;;;;4973418;28;20431;-71
2023/10/18 00:03:46;;;;;;;16.27;14.63;;;5.30;99.90;;;;;;4973243;28;20190;-71
2023/10/18 00:06:15;;;;;;;18.53;16.03;;;5.30;99.90;;;;;;4972936;28;20212;-71
2023/10/18 00:08:45;;;;;;;22.43;17.20;;;5.20;99.90;;;;;;4972084;28;20207;-71
2023/10/18 00:11:11;;;;;;;17.20;15.40;;;5.20;99.90;;;;;;4969683;28;20431;-71
2023/10/18 00:13:37;;;;;;;16.97;14.50;;;5.20;99.90;;;;;;4971786;28;20435;-71
2023/10/18 00:16:05;;;;;;;16.90;15.20;;;5.20;99.90;;;;;;4982184;28;20433;-71
2023/10/18 00:18:34;;;;;;;17.43;14.90;;;5.10;99.90;;;;;;4973409;28;20172;-71
2023/10/18 00:21:01;;;;;;;16.67;14.50;;;5.20;99.90;;;;;;4970984;28;20444;-71
2023/10/18 00:23:28;;;;;;;17.60;15.90;;;5.20;99.90;;;;;;4963277;28;21051;-70
2023/10/18 00:25:54;;;;;;;17.57;15.47;;;5.20;99.90;;;;;;4972929;28;20466;-71
2023/10/18 00:28:20;;;;;;;16.33;14.40;;;5.20;99.90;;;;;;4972316;28;20447;-70
2023/10/18 00:30:47;;;;;;;17.37;15.60;;;5.20;99.90;;;;;;4968740;28;20435;-71
2023/10/18 00:33:12;;;;;;;18.53;16.23;;;5.10;99.90;;;;;;4971527;28;20202;-71
2023/10/18 00:35:41;;;;;;;18.63;15.73;;;5.10;99.90;;;;;;4987620;28;20428;-71
2023/10/18 00:38:11;;;;;;;21.13;16.87;;;5.10;99.90;;;;;;4973130;28;20669;-71
2023/10/18 00:40:39;;;;;;;18.67;15.80;;;5.10;99.90;;;;;;4973213;28;20947;-71
2023/10/18 00:43:27;;;;;;;19.67;15.27;;;5.10;99.90;;;;;;4971759;28;20832;-71
2023/10/18 00:45:54;;;;;;;18.70;16.70;;;5.10;99.90;;;;;;4965646;28;20466;-71
2023/10/18 00:48:24;;;;;;;16.57;14.63;;;5.10;99.90;;;;;;4970724;28;20468;-71
2023/10/18 00:50:57;;;;;;;19.27;17.03;;;5.10;99.90;;;;;;4968446;28;20852;-71
2023/10/18 00:53:25;;;;;;;18.20;15.83;;;5.10;99.90;;;;;;4981469;28;20450;-71
2023/10/18 00:56:04;;;;;;;18.67;16.60;;;5.10;99.90;;;;;;4970109;28;20446;-71
2023/10/18 00:58:31;;;;;;;22.10;17.57;;;5.10;99.90;;;;;;4973659;28;20530;-71
2023/10/18 01:00:58;;;;;;;19.27;16.73;;;5.10;99.90;;;;;;4985661;28;20439;-70
2023/10/18 01:03:35;;;;;;;19.77;14.70;;;5.20;99.90;;;;;;4972520;28;20462;-70
2023/10/18 01:06:17;;;;;;;18.93;16.97;;;5.20;99.90;;;;;;4971589;28;20991;-71
2023/10/18 01:08:44;;;;;;;20.90;15.67;;;5.20;99.90;;;;;;4973835;28;20470;-71
2023/10/18 01:11:11;;;;;;;16.43;14.93;;;5.20;99.90;;;;;;4972033;28;20439;-71
2023/10/18 01:13:42;;;;;;;17.57;15.77;;;5.10;99.90;;;;;;4986234;28;20437;-71
2023/10/18 01:16:20;;;;;;;21.70;17.97;;;5.10;99.90;;;;;;4987287;28;20448;-71
2023/10/18 01:18:47;;;;;;;18.47;15.40;;;5.10;99.90;;;;;;4975509;28;20449;-71
2023/10/18 01:21:21;;;;;;;19.03;17.00;;;5.10;99.90;;;;;;4976124;28;20819;-71
2023/10/18 01:23:52;;;;;;;17.33;15.57;;;5.20;99.90;;;;;;4975114;28;20521;-70
2023/10/18 01:26:20;;;;;;;17.37;15.53;;;5.10;99.90;;;;;;4979986;28;20474;-71
2023/10/18 01:28:46;;;;;;;20.27;16.87;;;5.10;99.90;;;;;;4992492;28;20509;-71
2023/10/18 01:31:12;;;;;;;20.40;16.30;;;5.00;99.90;;;;;;4970847;28;20490;-70
2023/10/18 01:33:48;;;;;;;21.43;16.77;;;5.00;99.90;;;;;;4974741;28;20503;-71
2023/10/18 01:36:16;;;;;;;19.10;16.37;;;4.90;99.90;;;;;;4972873;28;20443;-71
2023/10/18 01:38:44;;;;;;;19.83;16.90;;;4.90;99.90;;;;;;4981781;28;20448;-71
2023/10/18 01:41:13;;;;;;;24.03;18.10;;;4.90;99.90;;;;;;4981892;28;20436;-70
2023/10/18 01:43:41;;;;;;;18.80;16.37;;;4.90;99.90;;;;;;4978789;28;20443;-71
2023/10/18 01:46:08;;;;;;;22.00;18.57;;;4.90;99.90;;;;;;4987141;28;20575;-71
2023/10/18 01:48:38;;;;;;;20.70;17.03;;;4.90;99.90;;;;;;4991311;28;20450;-71
2023/10/18 01:51:09;;;;;;;19.30;16.10;;;4.90;99.90;;;;;;4980784;28;20436;-71
2023/10/18 01:53:37;;;;;;;19.83;17.87;;;5.00;99.90;;;;;;4994692;28;20423;-71
2023/10/18 01:56:02;;;;;;;26.23;19.00;;;5.00;99.90;;;;;;4977014;28;20471;-71
2023/10/18 01:58:30;;;;;;;21.57;16.50;;;5.00;99.90;;;;;;4974882;28;20499;-70
2023/10/18 02:00:56;;;;;;;20.20;16.87;;;5.00;99.90;;;;;;4974530;28;20631;-71
2023/10/18 02:03:25;;;;;;;19.10;15.77;;;4.90;99.90;;;;;;4975666;28;20534;-71
2023/10/18 02:05:51;;;;;;;26.53;19.77;;;4.90;99.90;;;;;;4974648;28;20829;-70
2023/10/18 02:08:16;;;;;;;21.83;17.03;;;4.80;99.90;;;;;;4974786;28;20431;-71
2023/10/18 02:10:44;;;;;;;18.77;16.70;;;4.80;99.90;;;;;;4976592;28;20175;-71
2023/10/18 02:13:11;;;;;;;19.93;17.83;;;4.80;99.90;;;;;;4990462;28;20458;-70
2023/10/18 02:15:39;;;;;;;23.93;19.17;;;4.80;99.90;;;;;;4995136;28;20461;-70
2023/10/18 02:18:07;;;;;;;23.63;19.87;;;4.80;99.90;;;;;;4987249;28;20477;-71
2023/10/18 02:20:34;;;;;;;23.63;20.10;;;4.80;99.90;;;;;;4974608;28;21011;-71
2023/10/18 02:23:01;;;;;;;23.50;21.00;;;4.90;99.90;;;;;;4980078;28;20478;-71
2023/10/18 02:25:45;;;;;;;26.73;20.90;;;5.00;99.90;;;;;;4994737;28;20454;-71
2023/10/18 02:28:23;;;;;;;20.80;18.23;;;5.00;99.90;;;;;;4993560;28;20435;-71
2023/10/18 02:31:13;;;;;;;22.67;18.83;;;5.00;99.90;;;;;;4979884;28;20454;-70
2023/10/18 02:33:48;;;;;;;22.17;18.93;;;5.10;99.90;;;;;;4977225;28;20440;-71
2023/10/18 02:36:20;;;;;;;21.10;18.37;;;5.10;99.90;;;;;;4990295;28;20743;-70
2023/10/18 02:38:46;;;;;;;22.93;18.20;;;5.10;99.90;;;;;;4994801;28;20502;-71
2023/10/18 02:41:15;;;;;;;20.57;18.37;;;5.10;99.90;;;;;;4994625;28;20967;-71
2023/10/18 02:43:51;;;;;;;24.20;17.40;;;5.10;99.90;;;;;;4981138;28;20432;-71
2023/10/18 02:46:20;;;;;;;21.43;17.30;;;5.20;99.90;;;;;;4974200;28;20879;-70
2023/10/18 02:48:47;;;;;;;22.60;18.67;;;5.20;99.90;;;;;;4994520;28;20445;-71
2023/10/18 02:51:14;;;;;;;20.90;18.03;;;5.10;99.90;;;;;;4976383;28;20440;-70
2023/10/18 02:53:43;;;;;;;23.67;18.20;;;5.20;99.90;;;;;;4984734;28;20842;-70
2023/10/18 02:56:10;;;;;;;23.53;20.03;;;5.10;99.90;;;;;;4975552;28;20439;-71
2023/10/18 02:58:38;;;;;;;22.90;19.00;;;5.10;99.90;;;;;;4974050;28;20515;-70
2023/10/18 03:01:05;;;;;;;23.20;18.30;;;5.10;99.90;;;;;;4974414;28;20995;-71
2023/10/18 03:03:34;;;;;;;24.87;19.30;;;5.10;99.90;;;;;;4970670;28;20479;-71
2023/10/18 03:06:06;;;;;;;23.87;20.97;;;5.10;99.90;;;;;;4972096;28;20474;-71
2023/10/18 03:08:35;;;;;;;26.30;19.20;;;5.10;99.90;;;;;;4973479;28;20427;-70
2023/10/18 03:11:03;;;;;;;22.70;19.27;;;5.20;99.90;;;;;;4975475;28;20435;-71
2023/10/18 03:13:29;;;;;;;20.80;18.17;;;5.20;99.90;;;;;;4971936;28;20876;-70
2023/10/18 03:16:15;;;;;;;20.93;18.57;;;5.20;99.90;;;;;;4978084;28;20507;-71
2023/10/18 03:18:45;;;;;;;20.27;18.00;;;5.30;99.90;;;;;;4955304;28;20427;-70
2023/10/18 03:21:20;;;;;;;21.13;18.90;;;5.20;99.90;;;;;;4953946;29;20428;-71
2023/10/18 03:23:52;;;;;;;21.67;18.90;;;5.20;99.90;;;;;;4956501;28;20455;-71
2023/10/18 03:26:37;;;;;;;20.77;18.57;;;5.10;99.90;;;;;;4974169;28;20900;-71
2023/10/18 03:29:11;;;;;;;23.83;18.27;;;5.00;99.90;;;;;;4974329;28;20419;-71
2023/10/18 03:31:44;;;;;;;24.37;19.10;;;4.90;99.90;;;;;;4968800;28;20549;-71
2023/10/18 03:34:19;;;;;;;24.90;19.73;;;4.90;99.90;;;;;;5004060;28;20438;-70
2023/10/18 03:36:48;;;;;;;21.30;18.10;;;4.90;99.90;;;;;;4966769;28;20864;-71
2023/10/18 03:39:21;;;;;;;21.10;18.90;;;4.90;99.90;;;;;;4973381;28;20447;-71
2023/10/18 03:41:50;;;;;;;24.30;18.90;;;4.90;99.90;;;;;;4972698;28;20470;-71
2023/10/18 03:44:26;;;;;;;22.60;20.20;;;4.90;99.90;;;;;;4989961;28;20450;-70
2023/10/18 03:47:03;;;;;;;21.60;18.10;;;4.90;99.90;;;;;;4993451;28;20426;-71
2023/10/18 03:49:38;;;;;;;29.87;20.50;;;4.90;99.90;;;;;;4974429;28;20478;-71
2023/10/18 03:52:16;;;;;;;22.40;17.43;;;4.90;99.90;;;;;;4968069;28;20459;-71
2023/10/18 03:57:28;;;;;;;24.10;18.87;;;4.80;99.90;;;;;;4987951;28;20456;-70
2023/10/18 04:00:22;;;;;;;25.10;19.70;;;4.70;99.90;;;;;;4984751;28;20423;-70
2023/10/18 04:02:46;;;;;;;22.43;19.60;;;4.70;99.90;;;;;;4973304;28;20506;-70
2023/10/18 04:05:29;;;;;;;21.47;18.57;;;4.80;99.90;;;;;;4973930;28;20851;-71
2023/10/18 04:07:55;;;;;;;24.27;19.10;;;4.70;99.90;;;;;;4973775;28;20168;-71
2023/10/18 04:10:24;;;;;;;23.97;20.80;;;4.80;99.90;;;;;;4971408;28;20477;-71
2023/10/18 04:12:50;;;;;;;24.97;19.27;;;4.80;99.90;;;;;;4966440;28;20192;-70
2023/10/18 04:15:22;;;;;;;22.13;19.43;;;4.80;99.90;;;;;;4971550;28;20462;-71
2023/10/18 04:18:03;;;;;;;24.07;17.27;;;4.80;99.90;;;;;;4976941;28;20186;-71
2023/10/18 04:20:31;;;;;;;21.83;18.27;;;4.80;99.90;;;;;;4992998;28;20430;-71
2023/10/18 04:22:57;;;;;;;18.60;16.60;;;4.80;99.90;;;;;;4991158;28;20469;-71
2023/10/18 04:25:26;;;;;;;25.70;19.17;;;4.70;99.90;;;;;;4978317;28;20972;-70
2023/10/18 04:27:54;;;;;;;28.67;23.87;;;4.60;99.90;;;;;;4973266;28;21015;-71
2023/10/18 04:30:22;;;;;;;24.13;21.50;;;4.60;99.90;;;;;;4971957;28;20428;-70
2023/10/18 04:32:59;;;;;;;24.53;20.80;;;4.70;99.90;;;;;;4967459;28;21026;-70
2023/10/18 04:35:29;;;;;;;25.33;22.60;;;4.70;99.90;;;;;;4985709;28;20483;-70
2023/10/18 04:37:55;;;;;;;25.27;22.33;;;4.80;99.90;;;;;;4972374;28;20439;-70
2023/10/18 04:40:28;;;;;;;22.80;20.23;;;4.90;99.90;;;;;;4973136;28;20438;-71
2023/10/18 04:42:57;;;;;;;28.13;19.20;;;4.90;99.90;;;;;;4984276;28;20458;-70
2023/10/18 04:45:23;;;;;;;28.77;21.30;;;4.80;99.90;;;;;;4992595;28;20870;-70
2023/10/18 04:47:57;;;;;;;25.07;22.03;;;4.70;99.90;;;;;;4990101;28;20426;-70
2023/10/18 04:50:29;;;;;;;24.90;21.60;;;4.70;99.90;;;;;;4970331;28;20434;-70
2023/10/18 04:52:58;;;;;;;26.33;21.27;;;4.70;99.90;;;;;;4969770;28;20448;-70
2023/10/18 04:55:27;;;;;;;30.27;24.60;;;4.70;99.90;;;;;;4990547;28;20458;-70
2023/10/18 04:57:53;;;;;;;26.60;21.70;;;4.80;99.90;;;;;;4973235;28;20470;-70
2023/10/18 05:00:34;;;;;;;25.50;21.37;;;4.80;99.90;;;;;;4972674;28;20415;-70
2023/10/18 05:03:02;;;;;;;26.23;22.20;;;4.80;99.90;;;;;;4971520;28;20499;-70
2023/10/18 05:05:27;;;;;;;28.13;22.43;;;4.90;99.90;;;;;;4969537;28;20467;-70
2023/10/18 05:07:54;;;;;;;28.20;22.07;;;4.90;99.90;;;;;;4971017;28;21000;-70
2023/10/18 05:10:21;;;;;;;27.43;21.70;;;4.80;99.90;;;;;;4989863;28;20183;-70
2023/10/18 05:12:53;;;;;;;26.67;20.37;;;4.80;99.90;;;;;;4977565;28;20837;-70
2023/10/18 05:15:29;;;;;;;23.30;20.80;;;4.70;99.90;;;;;;4984228;28;20940;-70
2023/10/18 05:18:03;;;;;;;29.10;21.77;;;4.80;99.90;;;;;;4966953;28;20983;-71
2023/10/18 05:20:46;;;;;;;24.20;20.37;;;4.70;99.90;;;;;;4972870;28;20419;-70
2023/10/18 05:23:25;;;;;;;27.47;22.20;;;4.70;99.90;;;;;;5000717;22;20486;-73
2023/10/18 05:28:47;;;;;;;31.70;23.87;;;4.80;99.90;;;;;;4991266;28;20942;-73
2023/10/18 05:31:44;;;;;;;35.87;25.27;;;4.80;99.90;;;;;;4992264;28;20465;-73
2023/10/18 05:41:45;;;;;;;31.47;25.30;;;4.90;99.90;;;;;;4972896;28;20530;-73
2023/10/18 05:44:12;;;;;;;29.90;22.57;;;4.90;99.90;;;;;;4971518;28;20917;-73
2023/10/18 05:46:39;;;;;;;30.90;24.67;;;4.90;99.90;;;;;;4975433;28;20468;-73
2023/10/18 05:49:23;;;;;;;34.57;27.40;;;5.00;99.90;;;;;;4982755;28;20432;-73
2023/10/18 05:52:36;;;;;;;30.70;22.87;;;5.00;99.90;;;;;;4974124;28;20788;-72
2023/10/18 05:54:38;;;;;;;30.87;24.93;;;5.00;99.90;;;;;;4964651;28;20477;-72
2023/10/18 05:57:06;;;;;;;27.10;22.90;;;5.10;99.90;;;;;;4990534;28;20809;-72
2023/10/18 05:59:33;;;;;;;30.33;23.87;;;5.10;99.90;;;;;;4986170;28;20529;-71
2023/10/18 06:02:00;;;;;;;25.83;21.40;;;5.10;99.90;;;;;;4968152;28;20455;-72
2023/10/18 06:04:37;;;;;;;27.20;22.63;;;5.00;99.90;;;;;;4974327;28;20177;-72
2023/10/18 06:07:10;;;;;;;26.13;22.70;;;5.10;99.90;;;;;;4991318;28;21006;-72
2023/10/18 06:09:46;;;;;;;26.10;21.87;;;5.20;99.90;;;;;;4989713;28;20977;-72
2023/10/18 06:12:22;;;;;;;25.77;22.63;;;5.20;99.90;;;;;;4986445;28;20470;-72
2023/10/18 06:14:51;;;;;;;26.67;22.90;;;5.30;99.90;;;;;;4970514;28;20447;-72
2023/10/18 06:17:22;;;;;;;25.07;21.00;;;5.40;99.90;;;;;;4969270;28;20443;-73
2023/10/18 06:19:50;;;;;;;26.27;21.67;;;5.60;99.90;;;;;;4975388;28;20987;-72
2023/10/18 06:22:28;;;;;;;29.93;23.03;;;5.60;99.90;;;;;;4976638;28;20481;-72
2023/10/18 06:24:55;;;;;;;27.40;21.00;;;5.70;99.90;;;;;;4980427;28;20458;-72
2023/10/18 06:27:21;;;;;;;24.20;20.50;;;5.80;99.90;;;;;;4975369;28;20849;-72
2023/10/18 06:29:51;;;;;;;25.03;22.47;;;5.80;99.90;;;;;;4975372;28;20473;-72
2023/10/18 06:32:22;;;;;;;26.97;21.83;;;5.80;99.90;;;;;;4976857;28;20786;-72
2023/10/18 06:34:56;;;;;;;30.23;24.50;;;5.90;99.90;;;;;;4976209;28;20495;-71
2023/10/18 06:40:20;;;;;;;26.70;23.07;;;6.00;99.90;;;;;;4994596;28;20437;-72
2023/10/18 06:42:46;;;;;;;27.17;22.93;;;6.10;99.90;;;;;;4985194;28;21116;-71
2023/10/18 06:45:15;;;;;;;27.53;22.87;;;6.10;99.90;;;;;;4974651;28;20513;-72
2023/10/18 06:47:44;;;;;;;25.30;22.63;;;6.20;99.90;;;;;;4985595;28;20234;-72
2023/10/18 06:50:11;;;;;;;28.60;23.77;;;6.20;99.90;;;;;;4994363;28;20958;-71
2023/10/18 06:52:52;;;;;;;26.83;23.80;;;6.30;99.90;;;;;;4980572;28;20455;-72
2023/10/18 06:55:41;;;;;;;26.57;22.10;;;6.40;99.90;;;;;;4955570;28;20439;-71
2023/10/18 06:58:13;;;;;;;28.77;24.77;;;6.40;99.90;;;;;;4970504;28;20487;-73
2023/10/18 07:00:43;;;;;;;28.43;25.13;;;6.40;99.90;;;;;;4975028;28;20435;-73
2023/10/18 07:03:16;;;;;;;27.53;20.90;;;6.50;99.90;;;;;;4973254;28;20451;-71
2023/10/18 07:05:46;;;;;;;26.27;22.50;;;6.50;99.90;;;;;;4972835;28;20473;-71
2023/10/18 07:08:19;;;;;;;30.77;23.73;;;6.50;99.90;;;;;;4979689;28;20444;-72
2023/10/18 07:10:55;;;;;;;26.70;23.30;;;6.60;99.90;;;;;;4970869;28;20447;-71
2023/10/18 07:13:32;;;;;;;25.90;21.57;;;6.50;99.90;;;;;;4971587;28;20452;-69
2023/10/18 07:16:05;;;;;;;29.97;23.00;;;6.60;99.90;;;;;;4964017;28;20478;-73
2023/10/18 07:18:33;;;;;;;27.67;23.50;;;6.70;99.90;;;;;;4972513;28;20437;-70
2023/10/18 07:21:05;;;;;;;26.43;21.20;;;6.90;99.90;;;;;;4970317;28;20435;-72
2023/10/18 07:23:37;;;;;;;24.77;20.60;;;6.90;99.90;;;;;;4970836;28;20504;-72
2023/10/18 07:26:08;;;;;;;26.93;22.23;;;7.00;99.90;;;;;;4977009;28;20530;-70
2023/10/18 07:28:37;;;;;;;23.70;20.60;;;7.20;99.90;;;;;;4983365;28;20447;-72
2023/10/18 07:31:09;;;;;;;24.33;21.70;;;7.50;99.90;;;;;;4970301;28;20444;-71
2023/10/18 07:33:41;;;;;;;25.73;22.63;;;7.60;99.90;;;;;;4972705;28;20489;-71
2023/10/18 07:36:11;;;;;;;26.17;23.50;;;7.70;99.90;;;;;;4981127;28;20443;-71
2023/10/18 07:38:39;;;;;;;24.37;21.33;;;7.90;99.90;;;;;;4974576;28;20521;-71
2023/10/18 07:41:07;;;;;;;23.87;21.33;;;8.20;99.90;;;;;;4971969;28;20497;-71
2023/10/18 07:43:35;;;;;;;23.63;21.10;;;8.50;99.90;;;;;;4975576;28;20459;-71
2023/10/18 07:46:06;;;;;;;21.30;19.10;;;9.00;99.90;;;;;;4972959;28;20468;-70
2023/10/18 07:48:31;;;;;;;20.53;18.43;;;9.30;99.90;;;;;;4985746;28;20418;-71
2023/10/18 07:50:58;;;;;;;23.17;20.73;;;9.60;99.90;;;;;;4989415;28;20520;-71
2023/10/18 07:53:24;;;;;;;21.93;19.60;;;9.40;99.90;;;;;;4973733;28;20680;-72
2023/10/18 07:55:57;;;;;;;21.67;19.47;;;9.50;99.90;;;;;;4968310;28;20527;-70
2023/10/18 07:58:23;;;;;;;23.97;20.83;;;9.40;99.90;;;;;;4971237;28;20435;-71
2023/10/18 08:03:31;;;;;;;24.67;22.20;;;10.30;99.90;;;;;;4973515;28;20955;-71
2023/10/18 08:05:59;;;;;;;20.80;18.73;;;10.80;99.90;;;;;;4973623;28;20455;-71
2023/10/18 08:08:25;;;;;;;20.43;18.47;;;11.40;99.90;;;;;;4972545;28;20441;-71
2023/10/18 08:10:55;;;;;;;20.23;18.30;;;11.60;99.90;;;;;;4973515;28;20415;-71
2023/10/18 08:13:28;;;;;;;21.07;19.03;;;12.10;99.90;;;;;;4973162;28;20439;-71
2023/10/18 08:16:01;;;;;;;21.77;19.67;;;12.20;99.90;;;;;;4953882;28;20485;-72
2023/10/18 08:18:52;;;;;;;21.63;19.07;;;12.50;99.90;;;;;;4965686;28;20498;-71
2023/10/18 08:21:58;;;;;;;20.07;18.17;;;12.30;99.90;;;;;;4973422;28;20451;-70
2023/10/18 08:24:19;;;;;;;20.53;18.47;;;12.50;99.90;;;;;;4984656;28;20496;-71
2023/10/18 08:26:48;;;;;;;20.97;17.77;;;11.90;99.90;;;;;;4983709;28;20960;-71
2023/10/18 08:29:15;;;;;;;20.63;18.60;;;11.80;99.90;;;;;;4972289;28;20431;-72
2023/10/18 08:31:43;;;;;;;20.53;17.87;;;11.40;99.90;;;;;;4972562;28;20463;-70
2023/10/18 08:34:15;;;;;;;19.60;17.57;;;11.30;99.90;;;;;;4972978;28;20498;-70
2023/10/18 08:36:44;;;;;;;19.80;17.80;;;11.60;99.90;;;;;;4973274;28;20422;-71
2023/10/18 08:39:10;;;;;;;19.93;17.37;;;11.60;99.90;;;;;;4972497;28;20427;-71
2023/10/18 08:41:45;;;;;;;20.53;17.23;;;11.70;99.90;;;;;;4972971;28;20439;-72
2023/10/18 08:44:16;;;;;;;19.63;17.33;;;12.50;99.90;;;;;;4972910;28;20492;-72
2023/10/18 08:46:43;;;;;;;20.30;18.30;;;12.80;99.90;;;;;;4973063;28;20455;-71
2023/10/18 08:49:12;;;;;;;20.47;18.47;;;12.70;99.90;;;;;;4971349;28;20493;-72
2023/10/18 08:51:44;;;;;;;20.40;18.30;;;12.90;99.90;;;;;;4972842;28;20434;-70
2023/10/18 08:54:17;;;;;;;19.70;17.80;;;13.60;99.90;;;;;;4971478;28;20438;-72
2023/10/18 08:56:47;;;;;;;19.43;17.60;;;14.80;99.90;;;;;;4969699;28;20963;-71
2023/10/18 08:59:18;;;;;;;19.40;17.40;;;15.40;99.90;;;;;;4970684;28;20450;-70
2023/10/18 09:04:32;;;;;;;17.77;16.27;;;16.00;99.90;;;;;;4964722;28;20486;-70
2023/10/18 09:07:00;;;;;;;19.60;17.53;;;16.60;99.90;;;;;;4967321;28;20439;-70
2023/10/18 09:09:34;;;;;;;21.30;19.40;;;17.00;99.60;;;;;;4970321;28;20224;-70
2023/10/18 09:12:14;;;;;;;18.87;17.00;;;17.60;98.60;;;;;;4968940;28;20466;-70
2023/10/18 09:14:46;;;;;;;20.73;18.80;;;18.30;94.30;;;;;;4973004;28;20430;-70
2023/10/18 09:17:16;;;;;;;19.20;17.50;;;17.10;95.60;;;;;;4970138;28;20436;-70
2023/10/18 09:19:46;;;;;;;18.07;16.47;;;17.70;94.60;;;;;;4974416;28;20462;-70
2023/10/18 09:22:11;;;;;;;18.03;16.53;;;18.80;92.50;;;;;;4983889;28;20493;-70
2023/10/18 09:24:43;;;;;;;17.07;15.67;;;19.70;88.10;;;;;;4965150;28;20455;-70
2023/10/18 09:27:09;;;;;;;14.90;13.70;;;20.30;84.00;;;;;;4972345;28;20179;-70
2023/10/18 09:29:36;;;;;;;15.57;14.07;;;20.00;76.80;;;;;;4976002;28;20427;-70
2023/10/18 09:32:08;;;;;;;14.03;12.70;;;18.70;80.20;;;;;;4976185;28;20470;-69
2023/10/18 09:34:38;;;;;;;14.50;13.30;;;17.70;83.10;;;;;;4975803;28;20427;-70
2023/10/18 09:37:13;;;;;;;13.87;12.57;;;16.90;90.00;;;;;;4975531;28;20467;-72
2023/10/18 09:39:42;;;;;;;15.23;13.90;;;16.90;90.20;;;;;;4976492;28;20489;-70
2023/10/18 09:42:12;;;;;;;14.20;12.90;;;16.90;90.50;;;;;;4976045;28;20450;-70
2023/10/18 09:44:41;;;;;;;15.00;13.60;;;17.10;91.20;;;;;;4975846;28;20431;-70
2023/10/18 09:47:07;;;;;;;13.83;12.67;;;17.40;90.40;;;;;;4975163;28;20460;-70
2023/10/18 09:49:34;;;;;;;15.83;13.83;;;17.40;90.20;;;;;;4973767;28;20474;-71
2023/10/18 09:52:03;;;;;;;15.30;13.80;;;17.80;89.40;;;;;;4972609;28;20208;-70
2023/10/18 09:54:36;;;;;;;13.80;12.60;;;17.60;89.20;;;;;;4981795;28;20463;-69
2023/10/18 09:57:02;;;;;;;13.80;12.50;;;17.70;87.90;;;;;;4979126;28;20440;-71
2023/10/18 09:59:31;;;;;;;15.80;13.17;;;18.40;85.90;;;;;;4973095;28;20444;-70
2023/10/18 10:02:07;;;;;;;14.63;13.23;;;18.50;84.40;;;;;;4971739;28;20482;-72
2023/10/18 10:04:37;;;;;;;15.57;14.10;;;18.50;84.50;;;;;;4984792;28;20944;-69
2023/10/18 10:09:48;;;;;;;15.20;13.70;;;17.70;88.20;;;;;;4995301;28;20857;-69
2023/10/18 10:12:18;;;;;;;15.60;14.20;;;17.10;90.00;;;;;;4988464;28;20510;-70
2023/10/18 10:14:47;;;;;;;16.07;14.63;;;15.80;94.50;;;;;;4971481;28;20435;-70
2023/10/18 10:17:17;;;;;;;15.00;13.60;;;15.70;97.00;;;;;;4975477;28;20435;-69
2023/10/18 10:19:48;;;;;;;17.33;15.23;;;15.80;96.60;;;;;;4975342;28;20470;-69
2023/10/18 10:22:17;;;;;;;15.83;14.33;;;16.00;96.10;;;;;;4975349;28;20463;-70
2023/10/18 10:24:43;;;;;;;18.27;14.37;;;16.80;94.40;;;;;;4975190;28;20439;-70
2023/10/18 10:27:27;;;;;;;14.23;12.83;;;17.80;92.20;;;;;;4975173;28;20431;-70
2023/10/18 10:29:56;;;;;;;15.07;13.53;;;19.30;86.30;;;;;;4975468;28;20424;-71
2023/10/18 10:32:24;;;;;;;14.03;12.73;;;20.00;80.10;;;;;;4975109;28;20937;-70
2023/10/18 10:35:14;;;;;;;14.57;13.27;;;20.80;78.30;;;;;;4975073;28;20428;-70
2023/10/18 10:37:52;;;;;;;13.43;12.33;;;22.70;67.60;;;;;;4975318;28;20423;-71
2023/10/18 10:40:36;;;;;;;12.80;11.70;;;24.30;58.60;;;;;;4975219;28;21031;-70
2023/10/18 10:43:18;;;;;;;11.90;10.67;;;25.50;52.50;;;;;;4974610;28;20451;-70
2023/10/18 10:48:28;;;;;;;11.83;10.83;;;26.50;47.90;;;;;;4975214;28;20423;-68
2023/10/18 10:53:50;;;;;;;11.73;10.53;;;27.80;41.10;;;;;;4974865;28;20439;-69
2023/10/18 10:56:28;;;;;;;11.50;10.50;;;27.60;41.00;;;;;;4974553;28;20494;-68
2023/10/18 10:59:03;;;;;;;11.43;10.53;;;27.90;39.70;;;;;;4974711;28;20435;-71
2023/10/18 11:01:43;;;;;;;12.27;11.13;;;27.50;39.30;;;;;;4974542;28;20426;-71
2023/10/18 11:04:24;;;;;;;11.07;10.07;;;26.70;40.30;;;;;;4974623;28;20795;-71
2023/10/18 11:06:53;;;;;;;11.00;10.10;;;25.70;41.10;;;;;;4974706;28;20947;-71
2023/10/18 11:09:19;;;;;;;10.23;9.43;;;27.30;39.50;;;;;;4974587;28;20458;-69
2023/10/18 11:11:47;;;;;;;12.00;10.97;;;27.30;38.80;;;;;;4974134;28;20475;-72
2023/10/18 11:14:23;;;;;;;11.60;10.60;;;26.10;40.00;;;;;;4973965;28;20639;-71
2023/10/18 11:16:53;;;;;;;12.70;11.60;;;24.20;42.40;;;;;;4974445;28;20434;-70
2023/10/18 11:19:27;;;;;;;13.80;9.67;;;22.60;45.00;;;;;;4988521;28;20450;-71
2023/10/18 11:21:54;;;;;;;12.20;9.87;;;20.80;48.20;;;;;;4979598;28;20964;-71
2023/10/18 11:24:21;;;;;;;9.53;8.73;;;19.40;51.50;;;;;;4977710;28;20459;-72
2023/10/18 11:26:50;;;;;;;11.13;10.23;;;18.60;55.60;;;;;;4984611;28;20872;-69
2023/10/18 11:29:24;;;;;;;10.07;9.17;;;18.30;58.00;;;;;;4978602;28;20459;-70
2023/10/18 11:31:55;;;;;;;10.47;9.40;;;18.10;60.10;;;;;;4993443;28;20525;-69
2023/10/18 11:34:24;;;;;;;11.37;10.30;;;17.40;63.70;;;;;;4984516;28;20418;-70
2023/10/18 11:37:01;;;;;;;9.57;8.77;;;17.20;69.10;;;;;;4983711;28;20996;-68
2023/10/18 11:39:32;;;;;;;10.80;9.90;;;17.10;71.80;;;;;;4975012;28;20427;-68
2023/10/18 11:41:59;;;;;;;10.73;9.67;;;17.30;72.20;;;;;;4974742;28;20455;-69
2023/10/18 11:44:27;;;;;;;13.13;9.83;;;17.30;72.80;;;;;;4981979;28;20430;-68
2023/10/18 11:47:00;;;;;;;10.60;9.50;;;17.20;74.20;;;;;;4993441;28;20466;-68
2023/10/18 11:49:37;;;;;;;13.37;11.97;;;17.20;76.30;;;;;;4976649;28;20431;-69
2023/10/18 11:52:03;;;;;;;14.13;12.83;;;17.30;77.50;;;;;;4973466;28;20451;-69
2023/10/18 11:54:34;;;;;;;14.27;12.97;;;17.20;79.80;;;;;;4987581;28;20489;-69
2023/10/18 11:57:01;;;;;;;15.67;14.07;;;17.20;80.30;;;;;;4989402;28;20794;-68
2023/10/18 11:59:28;;;;;;;15.30;13.63;;;17.60;77.80;;;;;;4974166;28;20439;-70
2023/10/18 12:02:05;;;;;;;13.63;12.40;;;17.40;79.60;;;;;;4971349;28;20451;-70
2023/10/18 12:04:37;;;;;;;14.73;13.23;;;17.30;81.40;;;;;;4990746;28;20421;-69
2023/10/18 12:07:04;;;;;;;17.47;15.77;;;17.40;82.30;;;;;;4993009;28;20422;-69
2023/10/18 12:09:42;;;;;;;15.57;13.97;;;17.40;81.90;;;;;;4993001;28;20427;-68
2023/10/18 12:12:13;;;;;;;15.17;13.77;;;17.30;81.60;;;;;;4965846;28;20462;-70
2023/10/18 12:14:42;;;;;;;15.03;13.60;;;17.20;81.60;;;;;;4984450;28;20442;-69
2023/10/18 12:17:09;;;;;;;19.73;14.37;;;17.20;81.90;;;;;;4992938;28;20403;-68
2023/10/18 12:19:37;;;;;;;16.40;14.23;;;17.00;82.80;;;;;;4975315;28;20837;-68
2023/10/18 12:22:04;;;;;;;15.70;14.10;;;16.80;85.00;;;;;;4983280;28;20444;-69
2023/10/18 12:24:33;;;;;;;17.00;15.50;;;16.80;86.30;;;;;;4977882;28;20465;-69
2023/10/18 12:27:35;;;;;;;13.73;12.40;;;16.70;87.00;;;;;;4978877;28;20439;-68
2023/10/18 12:29:54;;;;;;;14.37;12.97;;;16.80;87.90;;;;;;4986491;28;20993;-70
2023/10/18 12:32:26;;;;;;;14.07;12.63;;;16.60;89.40;;;;;;4991839;28;20795;-69
2023/10/18 12:34:58;;;;;;;17.53;13.93;;;16.70;89.50;;;;;;4969235;28;20432;-69
2023/10/18 12:37:25;;;;;;;14.30;13.00;;;16.70;90.00;;;;;;4974692;28;20435;-68
2023/10/18 12:39:51;;;;;;;15.60;14.20;;;16.70;90.30;;;;;;4977856;28;20440;-68
2023/10/18 12:42:19;;;;;;;14.27;12.97;;;16.60;90.90;;;;;;4979143;28;20531;-69
2023/10/18 12:44:46;;;;;;;14.33;12.83;;;16.40;91.90;;;;;;4978410;28;20441;-70
2023/10/18 12:47:19;;;;;;;14.10;12.80;;;16.40;91.90;;;;;;4985581;28;20442;-69
2023/10/18 12:49:50;;;;;;;14.17;12.87;;;16.20;92.70;;;;;;4980270;28;20442;-68
2023/10/18 12:55:04;;;;;;;14.60;10.30;;;16.10;94.30;;;;;;4984638;28;20921;-68
2023/10/18 12:57:33;;;;;;;21.30;15.87;;;16.10;93.20;;;;;;4990128;28;21171;-68
2023/10/18 13:00:13;;;;;;;10.27;9.30;;;16.00;94.40;;;;;;4983074;28;20443;-69
2023/10/18 13:02:48;;;;;;;8.47;7.70;;;15.80;93.40;;;;;;4966441;28;20568;-69
2023/10/18 13:05:14;;;;;;;7.73;7.10;;;15.60;93.30;;;;;;4992745;28;20465;-68
2023/10/18 13:07:43;;;;;;;9.43;7.90;;;15.70;93.30;;;;;;4995780;28;20506;-68
2023/10/18 13:10:13;;;;;;;11.00;8.80;;;15.70;93.70;;;;;;4956332;29;20439;-68
2023/10/18 13:12:53;;;;;;;8.40;6.50;;;15.60;94.20;;;;;;4975457;28;20462;-68
2023/10/18 13:15:18;;;;;;;11.00;7.30;;;15.50;93.00;;;;;;4994704;28;20442;-68
2023/10/18 13:17:44;;;;;;;9.37;6.77;;;15.60;92.20;;;;;;4990273;28;20441;-70
2023/10/18 13:20:15;;;;;;;7.90;7.30;;;15.50;92.90;;;;;;4975901;28;20188;-69
2023/10/18 13:22:44;;;;;;;7.93;7.33;;;15.40;92.70;;;;;;4975586;28;20692;-69
2023/10/18 13:25:24;;;;;;;7.33;6.63;;;15.30;92.80;;;;;;4974355;28;20549;-68